createdAt,value
2022-07-31T00:00:40.521Z,8.52
2022-07-31T00:03:08.890Z,4.97
2022-07-31T00:05:38.689Z,6.90
2022-07-31T00:08:10.084Z,8.48
2022-07-31T00:10:38.174Z,8.65
2022-07-31T00:13:06.267Z,7.13
2022-07-31T00:15:35.477Z,9.35
2022-07-31T00:18:03.391Z,5.18
2022-07-31T00:20:32.438Z,4.05
2022-07-31T00:23:01.081Z,5.35
2022-07-31T00:25:29.004Z,4.80
2022-07-31T00:27:57.033Z,4.35
2022-07-31T00:30:25.447Z,4.97
2022-07-31T00:32:54.863Z,5.13
2022-07-31T00:35:22.981Z,6.47
2022-07-31T00:37:54.817Z,7.03
2022-07-31T00:40:30.390Z,6.93
2022-07-31T00:42:58.397Z,5.20
2022-07-31T00:45:29.096Z,7.63
2022-07-31T00:48:01.817Z,4.65
2022-07-31T00:50:29.885Z,4.35
2022-07-31T00:52:57.749Z,5.10
2022-07-31T00:55:26.027Z,6.65
2022-07-31T00:57:54.049Z,5.65
2022-07-31T01:00:23.294Z,6.40
2022-07-31T01:02:51.719Z,5.07
2022-07-31T01:05:20.944Z,9.55
2022-07-31T01:07:49.524Z,5.75
2022-07-31T01:10:24.291Z,4.38
2022-07-31T01:12:57.604Z,5.80
2022-07-31T01:15:27.261Z,6.05
2022-07-31T01:17:56.412Z,5.13
2022-07-31T01:20:27.561Z,5.82
2022-07-31T01:23:32.230Z,6.18
2022-07-31T01:26:09.442Z,5.03
2022-07-31T01:28:57.673Z,8.23
2022-07-31T01:31:36.056Z,5.10
2022-07-31T01:34:09.735Z,4.07
2022-07-31T01:36:40.930Z,4.55
2022-07-31T01:39:09.147Z,7.18
2022-07-31T01:41:41.880Z,4.63
2022-07-31T01:44:14.512Z,3.88
2022-07-31T01:46:44.231Z,6.85
2022-07-31T01:49:14.130Z,5.10
2022-07-31T01:51:44.263Z,6.28
2022-07-31T01:54:13.782Z,5.05
2022-07-31T01:56:43.276Z,4.97
2022-07-31T01:59:20.564Z,6.18
2022-07-31T02:01:51.769Z,5.93
2022-07-31T02:04:21.613Z,5.80
2022-07-31T02:06:50.647Z,3.47
2022-07-31T02:09:20.490Z,5.28
2022-07-31T02:11:54.638Z,5.88
2022-07-31T02:14:25.250Z,4.53
2022-07-31T02:16:53.784Z,5.75
2022-07-31T02:19:23.325Z,7.20
2022-07-31T02:21:51.477Z,5.65
2022-07-31T02:24:19.730Z,7.93
2022-07-31T02:26:48.735Z,4.45
2022-07-31T02:29:19.606Z,7.03
2022-07-31T02:32:03.222Z,4.65
2022-07-31T02:34:33.043Z,4.65
2022-07-31T02:37:02.628Z,6.50
2022-07-31T02:39:32.473Z,5.63
2022-07-31T02:42:02.473Z,8.75
2022-07-31T02:44:34.670Z,3.83
2022-07-31T02:47:05.403Z,4.63
2022-07-31T02:49:34.427Z,7.07
2022-07-31T02:52:04.504Z,4.32
2022-07-31T02:54:33.192Z,6.38
2022-07-31T02:57:03.066Z,3.90
2022-07-31T02:59:30.955Z,5.03
2022-07-31T03:01:58.904Z,3.30
2022-07-31T03:04:29.857Z,3.45
2022-07-31T03:06:59.113Z,2.70
2022-07-31T03:09:27.081Z,2.75
2022-07-31T03:11:55.084Z,5.05
2022-07-31T03:14:24.188Z,4.43
2022-07-31T03:16:53.731Z,5.43
2022-07-31T03:19:23.494Z,4.63
2022-07-31T03:21:53.716Z,2.60
2022-07-31T03:24:22.253Z,4.75
2022-07-31T03:26:50.249Z,5.63
2022-07-31T03:29:39.026Z,4.80
2022-07-31T03:32:08.098Z,5.13
2022-07-31T03:34:36.047Z,6.05
2022-07-31T03:37:05.336Z,5.75
2022-07-31T03:39:33.292Z,5.50
2022-07-31T03:42:03.952Z,5.82
2022-07-31T03:44:33.778Z,6.75
2022-07-31T03:47:01.970Z,6.25
2022-07-31T03:49:31.129Z,7.10
2022-07-31T03:51:59.424Z,6.50
2022-07-31T03:54:28.715Z,7.20
2022-07-31T03:56:58.780Z,7.95
2022-07-31T03:59:28.377Z,6.57
2022-07-31T04:02:10.787Z,7.53
2022-07-31T04:04:39.981Z,6.40
2022-07-31T04:07:08.050Z,8.85
2022-07-31T04:09:38.531Z,9.85
2022-07-31T04:12:07.541Z,9.75
2022-07-31T04:14:35.727Z,11.30
2022-07-31T04:17:03.646Z,8.23
2022-07-31T04:19:31.653Z,13.00
2022-07-31T04:21:59.813Z,8.15
2022-07-31T04:24:27.830Z,9.35
2022-07-31T04:26:57.970Z,11.88
2022-07-31T04:29:28.621Z,10.68
2022-07-31T04:31:56.644Z,11.15
2022-07-31T04:34:24.574Z,12.73
2022-07-31T04:36:52.585Z,10.52
2022-07-31T04:39:20.534Z,14.73
2022-07-31T04:41:48.417Z,11.60
2022-07-31T04:44:17.691Z,15.95
2022-07-31T04:46:45.767Z,12.85
2022-07-31T04:49:15.155Z,12.05
2022-07-31T04:51:43.927Z,12.77
2022-07-31T04:54:12.118Z,15.43
2022-07-31T04:56:43.133Z,14.05
2022-07-31T04:59:13.733Z,14.70
2022-07-31T05:01:44.497Z,10.52
2022-07-31T05:04:12.556Z,13.15
2022-07-31T05:06:42.557Z,13.43
2022-07-31T05:09:18.332Z,12.77
2022-07-31T05:11:48.159Z,12.20
2022-07-31T05:14:17.998Z,14.70
2022-07-31T05:16:47.476Z,15.55
2022-07-31T05:19:15.440Z,12.35
2022-07-31T05:21:49.641Z,17.95
2022-07-31T05:24:32.604Z,16.98
2022-07-31T05:27:01.164Z,15.95
2022-07-31T05:29:29.084Z,12.98
2022-07-31T05:31:59.680Z,18.17
2022-07-31T05:34:30.655Z,15.25
2022-07-31T05:36:59.086Z,16.08
2022-07-31T05:39:28.146Z,14.45
2022-07-31T05:41:56.146Z,15.75
2022-07-31T05:44:24.562Z,16.67
2022-07-31T05:49:22.351Z,17.83
2022-07-31T05:51:54.076Z,20.63
2022-07-31T05:54:22.336Z,12.10
2022-07-31T05:56:50.572Z,14.63
2022-07-31T05:59:18.595Z,18.05
2022-07-31T06:01:46.721Z,13.95
2022-07-31T06:04:14.755Z,16.08
2022-07-31T06:06:44.202Z,20.02
2022-07-31T06:09:12.159Z,20.80
2022-07-31T06:11:40.099Z,19.45
2022-07-31T06:14:08.244Z,18.35
2022-07-31T06:16:36.206Z,16.38
2022-07-31T06:19:05.099Z,15.52
2022-07-31T06:21:35.626Z,16.63
2022-07-31T06:24:05.824Z,18.30
2022-07-31T06:26:35.582Z,21.55
2022-07-31T06:29:03.459Z,19.15
2022-07-31T06:31:31.391Z,21.25
2022-07-31T06:33:59.414Z,20.05
2022-07-31T06:36:27.381Z,21.35
2022-07-31T06:38:55.285Z,18.08
2022-07-31T06:41:41.888Z,20.50
2022-07-31T06:44:09.916Z,18.33
2022-07-31T06:46:37.881Z,19.10
2022-07-31T06:49:08.960Z,17.00
2022-07-31T06:51:37.307Z,18.60
2022-07-31T06:54:07.246Z,16.88
2022-07-31T06:56:37.577Z,23.52
2022-07-31T06:59:06.777Z,21.35
2022-07-31T07:01:35.192Z,16.48
2022-07-31T07:04:03.251Z,16.75
2022-07-31T07:06:31.302Z,23.13
2022-07-31T07:08:59.240Z,21.15
2022-07-31T07:11:27.257Z,19.75
2022-07-31T07:13:56.621Z,16.88
2022-07-31T07:16:24.597Z,15.52
2022-07-31T07:18:53.012Z,18.85
2022-07-31T07:21:23.988Z,16.27
2022-07-31T07:23:51.868Z,21.02
2022-07-31T07:26:20.066Z,18.02
2022-07-31T07:28:47.958Z,17.83
2022-07-31T07:31:17.185Z,14.80
2022-07-31T07:33:45.565Z,18.13
2022-07-31T07:36:23.140Z,18.10
2022-07-31T07:38:53.505Z,21.85
2022-07-31T07:41:23.325Z,15.82
2022-07-31T07:43:51.676Z,14.95
2022-07-31T07:46:22.512Z,15.82
2022-07-31T07:48:51.778Z,14.63
2022-07-31T07:51:21.264Z,14.10
2022-07-31T07:53:49.717Z,14.15
2022-07-31T07:56:17.645Z,13.45
2022-07-31T07:58:45.884Z,18.50
2022-07-31T08:01:14.235Z,15.60
2022-07-31T08:03:49.880Z,14.05
2022-07-31T08:06:20.725Z,12.23
2022-07-31T08:08:48.816Z,16.63
2022-07-31T08:11:17.456Z,14.18
2022-07-31T08:13:50.498Z,15.70
2022-07-31T08:16:19.633Z,16.42
2022-07-31T08:18:49.583Z,15.85
2022-07-31T08:21:17.513Z,13.52
2022-07-31T08:23:45.639Z,13.93
2022-07-31T08:26:13.948Z,15.38
2022-07-31T08:28:50.446Z,12.82
2022-07-31T08:31:19.804Z,16.48
2022-07-31T08:33:49.322Z,13.95
2022-07-31T08:36:17.345Z,12.88
2022-07-31T08:38:45.612Z,12.73
2022-07-31T08:41:15.569Z,16.08
2022-07-31T08:44:03.058Z,14.45
2022-07-31T08:46:33.500Z,15.90
2022-07-31T08:49:04.396Z,20.63
2022-07-31T08:51:52.795Z,23.20
2022-07-31T08:54:21.952Z,14.25
2022-07-31T08:56:52.508Z,19.42
2022-07-31T08:59:22.008Z,17.77
2022-07-31T09:01:50.341Z,17.38
2022-07-31T09:04:19.791Z,22.98
2022-07-31T09:06:47.837Z,21.48
2022-07-31T09:09:17.830Z,20.30
2022-07-31T09:11:50.064Z,17.58
2022-07-31T09:14:27.429Z,22.52
2022-07-31T09:16:55.891Z,19.83
2022-07-31T09:19:53.556Z,21.02
2022-07-31T09:22:23.192Z,22.40
2022-07-31T09:24:51.905Z,25.52
2022-07-31T09:27:19.855Z,18.92
2022-07-31T09:29:49.714Z,19.38
2022-07-31T09:32:19.576Z,22.02
2022-07-31T09:34:49.541Z,19.83
2022-07-31T09:37:19.174Z,18.92
2022-07-31T09:39:52.303Z,17.17
2022-07-31T09:42:21.065Z,15.70
2022-07-31T09:44:51.012Z,19.20
2022-07-31T09:47:23.411Z,14.85
2022-07-31T09:49:58.243Z,19.23
2022-07-31T09:52:27.512Z,15.88
2022-07-31T09:55:03.711Z,14.32
2022-07-31T09:57:52.753Z,15.70
2022-07-31T10:00:20.828Z,11.98
2022-07-31T10:02:50.627Z,13.70
2022-07-31T10:05:22.679Z,12.57
2022-07-31T10:07:51.360Z,17.48
2022-07-31T10:10:20.069Z,18.83
2022-07-31T10:12:51.979Z,11.63
2022-07-31T10:15:21.456Z,10.23
2022-07-31T10:17:52.675Z,12.48
2022-07-31T10:20:25.567Z,10.32
2022-07-31T10:22:57.641Z,8.90
2022-07-31T10:25:28.976Z,7.93
2022-07-31T10:27:58.140Z,8.82
2022-07-31T10:30:28.567Z,6.38
2022-07-31T10:32:58.615Z,7.63
2022-07-31T10:35:28.983Z,10.32
2022-07-31T10:38:02.390Z,9.90
2022-07-31T10:40:37.750Z,9.00
2022-07-31T10:43:20.331Z,10.93
2022-07-31T10:45:50.564Z,9.52
2022-07-31T10:48:19.023Z,9.57
2022-07-31T10:50:49.663Z,9.10
2022-07-31T10:53:19.357Z,10.05
2022-07-31T10:55:47.547Z,9.77
2022-07-31T10:58:17.560Z,12.07
2022-07-31T11:00:45.770Z,9.02
2022-07-31T11:03:17.724Z,7.95
2022-07-31T11:06:01.367Z,8.40
2022-07-31T11:08:41.223Z,5.90
2022-07-31T11:11:09.238Z,10.65
2022-07-31T11:13:46.746Z,8.27
2022-07-31T11:16:14.890Z,9.88
2022-07-31T11:18:43.215Z,7.53
2022-07-31T11:21:37.219Z,14.68
2022-07-31T11:24:03.268Z,7.70
2022-07-31T11:26:42.105Z,10.30
2022-07-31T11:29:58.736Z,10.23
2022-07-31T11:32:01.713Z,12.35
2022-07-31T11:34:29.604Z,8.52
2022-07-31T11:36:59.160Z,8.20
2022-07-31T11:39:36.988Z,9.63
2022-07-31T11:42:07.633Z,8.02
2022-07-31T11:44:36.081Z,8.57
2022-07-31T11:47:04.374Z,14.68
2022-07-31T11:50:01.922Z,13.55
2022-07-31T11:52:36.882Z,7.95
2022-07-31T11:55:09.421Z,11.75
2022-07-31T11:57:50.396Z,6.78
2022-07-31T12:00:26.626Z,10.35
2022-07-31T12:02:58.476Z,7.95
2022-07-31T12:05:39.074Z,10.60
2022-07-31T12:08:09.326Z,11.55
2022-07-31T12:10:37.765Z,9.02
2022-07-31T12:13:06.038Z,7.63
2022-07-31T12:15:34.189Z,6.93
2022-07-31T12:18:03.725Z,10.18
2022-07-31T12:20:36.625Z,7.93
2022-07-31T12:23:06.672Z,10.40
2022-07-31T12:25:43.281Z,5.15
2022-07-31T12:28:14.147Z,5.32
2022-07-31T12:30:42.569Z,7.90
2022-07-31T12:33:11.936Z,9.13
2022-07-31T12:35:55.994Z,7.13
2022-07-31T12:38:47.524Z,9.27
2022-07-31T12:41:15.739Z,9.85
2022-07-31T12:43:51.064Z,10.25
2022-07-31T12:46:20.889Z,11.02
2022-07-31T12:48:48.873Z,11.13
2022-07-31T12:51:19.855Z,8.20
2022-07-31T12:53:49.657Z,8.45
2022-07-31T12:56:19.007Z,9.95
2022-07-31T12:58:46.948Z,9.68
2022-07-31T13:01:14.977Z,15.45
2022-07-31T13:03:46.349Z,9.48
2022-07-31T13:06:14.772Z,14.60
2022-07-31T13:08:44.005Z,7.80
2022-07-31T13:11:12.052Z,12.48
2022-07-31T13:13:41.354Z,10.50
2022-07-31T13:16:09.288Z,10.32
2022-07-31T13:18:38.035Z,6.60
2022-07-31T13:21:06.727Z,10.82
2022-07-31T13:23:34.673Z,10.57
2022-07-31T13:26:02.661Z,8.25
2022-07-31T13:28:30.612Z,7.88
2022-07-31T13:30:59.987Z,8.77
2022-07-31T13:33:27.991Z,8.88
2022-07-31T13:35:55.936Z,9.10
2022-07-31T13:38:23.831Z,10.52
2022-07-31T13:41:09.030Z,6.93
2022-07-31T13:43:36.992Z,8.15
2022-07-31T13:46:06.337Z,9.23
2022-07-31T13:48:35.115Z,9.45
2022-07-31T13:51:03.183Z,8.77
2022-07-31T13:53:31.136Z,9.95
2022-07-31T13:55:59.065Z,9.85
2022-07-31T13:58:28.165Z,10.15
2022-07-31T14:00:57.181Z,11.82
2022-07-31T14:03:28.593Z,10.30
2022-07-31T14:05:58.762Z,9.88
2022-07-31T14:08:30.514Z,11.27
2022-07-31T14:11:16.118Z,12.85
2022-07-31T14:13:44.064Z,12.40
2022-07-31T14:16:12.025Z,9.85
2022-07-31T14:18:41.345Z,11.52
2022-07-31T14:21:09.393Z,9.18
2022-07-31T14:23:40.737Z,8.65
2022-07-31T14:26:08.911Z,11.73
2022-07-31T14:28:37.027Z,13.20
2022-07-31T14:31:05.034Z,11.10
2022-07-31T14:33:33.069Z,13.27
2022-07-31T14:36:03.717Z,14.43
2022-07-31T14:38:31.734Z,9.95
2022-07-31T14:40:59.925Z,12.18
2022-07-31T14:43:27.860Z,14.68
2022-07-31T14:45:55.811Z,10.80
2022-07-31T14:48:23.776Z,11.27
2022-07-31T14:50:51.817Z,11.80
2022-07-31T14:53:21.104Z,11.35
2022-07-31T14:55:49.066Z,10.73
2022-07-31T14:58:17.001Z,13.32
2022-07-31T15:00:45.306Z,11.55
2022-07-31T15:03:13.297Z,14.85
2022-07-31T15:06:39.354Z,16.65
2022-07-31T15:08:31.361Z,13.07
2022-07-31T15:10:59.324Z,14.93
2022-07-31T15:13:27.297Z,11.95
2022-07-31T15:15:55.441Z,13.98
2022-07-31T15:18:24.598Z,11.98
2022-07-31T15:20:53.920Z,11.13
2022-07-31T15:23:22.078Z,11.95
2022-07-31T15:25:51.513Z,14.13
2022-07-31T15:28:19.501Z,12.23
2022-07-31T15:30:47.394Z,11.57
2022-07-31T15:33:15.341Z,20.00
2022-07-31T15:35:43.283Z,17.00
2022-07-31T15:38:11.288Z,13.38
2022-07-31T15:40:39.216Z,10.80
2022-07-31T15:43:08.661Z,14.05
2022-07-31T15:45:36.597Z,16.52
2022-07-31T15:48:09.628Z,15.93
2022-07-31T15:50:38.167Z,19.13
2022-07-31T15:53:06.418Z,15.38
2022-07-31T15:55:34.383Z,17.23
2022-07-31T15:58:02.271Z,18.33
2022-07-31T16:00:31.529Z,14.07
2022-07-31T16:02:59.765Z,20.65
2022-07-31T16:05:36.926Z,20.15
2022-07-31T16:08:33.507Z,18.55
2022-07-31T16:10:56.441Z,16.27
2022-07-31T16:13:24.673Z,17.45
2022-07-31T16:15:54.952Z,16.23
2022-07-31T16:18:22.936Z,18.67
2022-07-31T16:20:50.956Z,16.55
2022-07-31T16:23:18.913Z,14.40
2022-07-31T16:25:47.777Z,20.08
2022-07-31T16:28:15.824Z,16.27
2022-07-31T16:30:45.599Z,17.23
2022-07-31T16:33:15.291Z,14.85
2022-07-31T16:35:43.342Z,13.82
2022-07-31T16:38:11.362Z,15.32
2022-07-31T16:40:39.481Z,15.75
2022-07-31T16:43:47.964Z,18.67
2022-07-31T16:45:56.859Z,17.73
2022-07-31T16:48:26.207Z,15.27
2022-07-31T16:50:54.952Z,17.48
2022-07-31T16:54:12.047Z,17.00
2022-07-31T16:56:11.407Z,18.52
2022-07-31T16:58:39.455Z,18.55
2022-07-31T17:01:57.628Z,17.02
2022-07-31T17:04:00.549Z,21.40
2022-07-31T17:06:34.622Z,19.90
2022-07-31T17:09:17.310Z,16.63
2022-07-31T17:11:48.969Z,19.83
2022-07-31T17:14:17.437Z,11.27
2022-07-31T17:16:48.794Z,24.75
2022-07-31T17:19:35.930Z,17.55
2022-07-31T17:22:08.190Z,19.02
2022-07-31T17:24:39.890Z,15.50
2022-07-31T17:27:09.446Z,17.15
2022-07-31T17:29:38.329Z,16.20
2022-07-31T17:32:07.017Z,18.58
2022-07-31T17:34:36.414Z,16.38
2022-07-31T17:37:04.877Z,17.38
2022-07-31T17:39:33.277Z,18.05
2022-07-31T17:42:01.275Z,18.20
2022-07-31T17:44:29.228Z,20.33
2022-07-31T17:46:58.084Z,20.02
2022-07-31T17:49:27.439Z,19.33
2022-07-31T17:52:08.331Z,18.42
2022-07-31T17:54:36.543Z,20.73
2022-07-31T17:57:05.789Z,17.58
2022-07-31T17:59:34.173Z,22.20
2022-07-31T18:02:03.788Z,17.25
2022-07-31T18:04:34.104Z,17.20
2022-07-31T18:07:05.175Z,21.50
2022-07-31T18:09:36.667Z,19.52
2022-07-31T18:12:05.573Z,14.88
2022-07-31T18:14:34.015Z,27.08
2022-07-31T18:17:02.568Z,22.10
2022-07-31T18:19:30.654Z,21.17
2022-07-31T18:21:58.990Z,16.48
2022-07-31T18:24:29.987Z,23.10
2022-07-31T18:26:58.263Z,24.30
2022-07-31T18:29:26.412Z,14.23
2022-07-31T18:31:54.611Z,21.30
2022-07-31T18:34:22.831Z,23.52
2022-07-31T18:36:54.781Z,17.80
2022-07-31T18:39:23.785Z,22.15
2022-07-31T18:41:53.859Z,24.05
2022-07-31T18:44:22.400Z,20.67
2022-07-31T18:46:51.045Z,22.00
2022-07-31T18:50:58.462Z,18.60
2022-07-31T18:52:10.661Z,16.63
2022-07-31T18:54:39.333Z,18.80
2022-07-31T18:57:09.274Z,15.27
2022-07-31T18:59:37.938Z,20.35
2022-07-31T19:02:06.592Z,15.98
2022-07-31T19:04:39.989Z,20.10
2022-07-31T19:07:08.812Z,18.52
2022-07-31T19:09:37.178Z,14.55
2022-07-31T19:12:08.218Z,18.10
2022-07-31T19:14:38.497Z,21.92
2022-07-31T19:17:07.047Z,16.38
2022-07-31T19:19:54.241Z,15.05
2022-07-31T19:22:23.889Z,18.95
2022-07-31T19:24:52.379Z,17.60
2022-07-31T19:27:21.787Z,13.40
2022-07-31T19:30:13.936Z,17.08
2022-07-31T19:32:42.304Z,14.43
2022-07-31T19:35:12.392Z,16.58
2022-07-31T19:37:41.377Z,23.25
2022-07-31T19:40:11.014Z,17.77
2022-07-31T19:42:39.578Z,17.73
2022-07-31T19:45:08.350Z,22.45
2022-07-31T19:47:37.851Z,22.75
2022-07-31T19:50:07.618Z,21.17
2022-07-31T19:52:35.760Z,19.85
2022-07-31T19:55:05.303Z,18.17
2022-07-31T19:57:33.731Z,14.57
2022-07-31T20:00:01.803Z,22.75
2022-07-31T20:02:30.463Z,18.27
2022-07-31T20:05:00.121Z,26.17
2022-07-31T20:07:32.675Z,14.80
2022-07-31T20:10:01.836Z,20.98
2022-07-31T20:12:29.816Z,20.33
2022-07-31T20:14:57.781Z,22.63
2022-07-31T20:17:26.282Z,23.70
2022-07-31T20:20:14.524Z,19.40
2022-07-31T20:22:44.476Z,19.02
2022-07-31T20:25:20.533Z,21.30
2022-07-31T20:27:49.310Z,16.23
2022-07-31T20:30:22.009Z,16.38
2022-07-31T20:32:50.470Z,19.73
2022-07-31T20:35:32.935Z,20.45
2022-07-31T20:38:09.128Z,19.35
2022-07-31T20:40:53.147Z,19.15
2022-07-31T20:43:23.507Z,18.58
2022-07-31T20:45:51.669Z,17.50
2022-07-31T20:48:21.879Z,17.67
2022-07-31T20:50:50.085Z,13.40
2022-07-31T20:53:21.088Z,15.52
2022-07-31T20:55:50.139Z,16.90
2022-07-31T20:58:18.189Z,15.60
2022-07-31T21:00:47.313Z,12.00
2022-07-31T21:03:16.126Z,10.68
2022-07-31T21:05:44.519Z,8.10
2022-07-31T21:08:12.562Z,5.85
2022-07-31T21:10:42.087Z,5.90
2022-07-31T21:13:10.213Z,7.47
2022-07-31T21:15:42.781Z,6.18
2022-07-31T21:18:12.808Z,4.90
2022-07-31T21:20:49.834Z,9.45
2022-07-31T21:23:22.708Z,6.65
2022-07-31T21:25:52.705Z,8.70
2022-07-31T21:28:22.723Z,8.88
2022-07-31T21:30:52.937Z,5.05
2022-07-31T21:33:21.089Z,5.72
2022-07-31T21:35:49.841Z,4.85
2022-07-31T21:38:18.849Z,7.43
2022-07-31T21:40:48.201Z,3.92
2022-07-31T21:43:18.651Z,6.65
2022-07-31T21:45:57.934Z,5.80
2022-07-31T21:48:31.436Z,6.63
2022-07-31T21:51:01.019Z,6.82
2022-07-31T21:53:29.013Z,6.25
2022-07-31T21:55:59.427Z,6.32
2022-07-31T21:58:30.728Z,5.80
2022-07-31T22:00:58.733Z,5.45
2022-07-31T22:03:26.763Z,7.18
2022-07-31T22:06:12.037Z,7.03
2022-07-31T22:08:40.001Z,4.90
2022-07-31T22:11:08.037Z,9.00
2022-07-31T22:13:37.329Z,5.70
2022-07-31T22:16:05.874Z,5.95
2022-07-31T22:18:35.396Z,5.70
2022-07-31T22:21:05.305Z,5.25
2022-07-31T22:23:33.862Z,6.05
2022-07-31T22:26:02.730Z,5.10
2022-07-31T22:28:30.834Z,5.47
2022-07-31T22:31:00.730Z,4.03
2022-07-31T22:33:28.846Z,4.20
2022-07-31T22:36:00.729Z,5.05
2022-07-31T22:38:30.181Z,3.42
2022-07-31T22:40:58.622Z,6.30
2022-07-31T22:44:10.133Z,5.15
2022-07-31T22:46:16.345Z,3.78
2022-07-31T22:48:46.422Z,4.25
2022-07-31T22:51:15.656Z,4.13
2022-07-31T22:53:44.188Z,3.70
2022-07-31T22:56:12.269Z,4.25
2022-07-31T22:58:40.318Z,3.80
2022-07-31T23:01:08.258Z,3.47
2022-07-31T23:03:37.555Z,4.25
2022-07-31T23:06:31.666Z,4.15
2022-07-31T23:08:54.751Z,4.80
2022-07-31T23:11:23.498Z,4.53
2022-07-31T23:13:51.596Z,3.67
2022-07-31T23:16:20.461Z,3.67
2022-07-31T23:18:50.465Z,4.88
2022-07-31T23:21:19.446Z,3.60
2022-07-31T23:23:48.689Z,4.90
2022-07-31T23:26:18.617Z,4.40
2022-07-31T23:28:46.884Z,4.95
2022-07-31T23:31:15.240Z,7.07
2022-07-31T23:33:43.292Z,6.00
2022-07-31T23:36:12.827Z,5.40
2022-07-31T23:38:40.920Z,5.38
2022-07-31T23:41:09.748Z,6.43
2022-07-31T23:43:37.101Z,6.43
2022-07-31T23:46:05.657Z,8.35
2022-07-31T23:48:35.610Z,6.35
2022-07-31T23:51:04.228Z,9.70
2022-07-31T23:53:33.725Z,6.05
2022-07-31T23:56:01.650Z,6.70
2022-07-31T23:58:29.592Z,6.57
